Time;durP1;ratioP1;P1;durP2;ratioP2;P2;SDS_P1;SDS_P2;PMS_P1;PMS_P2;Temp;Humidity;BMP_temperature;BMP_pressure;BME280_temperature;BME280_humidity;BME280_pressure;Samples;Min_cycle;Max_cycle;Signal;HPM_P1;HPM_P2
2021/12/18 00:01:24;;;;;;;43.88;19.75;;;6.50;95.00;;;;;;5027702;28;20025;-70
2021/12/18 00:03:49;;;;;;;41.67;19.20;;;6.50;95.30;;;;;;5030539;28;20025;-70
2021/12/18 00:06:15;;;;;;;44.05;19.60;;;6.50;94.90;;;;;;5030923;28;20032;-70
2021/12/18 00:08:43;;;;;;;43.13;19.65;;;6.50;94.90;;;;;;5025005;28;20100;-70
2021/12/18 00:11:09;;;;;;;42.60;19.48;;;6.40;94.80;;;;;;5026128;28;20041;-70
2021/12/18 00:13:35;;;;;;;39.42;17.70;;;6.40;94.80;;;;;;5020193;28;20504;-71
2021/12/18 00:16:01;;;;;;;41.70;18.83;;;6.40;95.10;;;;;;5025405;28;20043;-70
2021/12/18 00:18:26;;;;;;;47.08;23.83;;;6.40;95.00;;;;;;5028914;28;20063;-70
2021/12/18 00:20:52;;;;;;;41.67;19.67;;;6.40;94.90;;;;;;5026826;28;20037;-70
2021/12/18 00:23:18;;;;;;;42.08;18.65;;;6.40;95.10;;;;;;5024909;28;20026;-70
2021/12/18 00:25:44;;;;;;;43.22;19.85;;;6.40;95.00;;;;;;5028358;28;20088;-71
2021/12/18 00:28:11;;;;;;;42.92;19.05;;;6.40;95.10;;;;;;5030880;28;20028;-70
2021/12/18 00:30:38;;;;;;;40.00;19.10;;;6.30;95.10;;;;;;5031576;28;20080;-70
2021/12/18 00:33:05;;;;;;;42.33;19.40;;;6.30;95.00;;;;;;5031480;28;20390;-70
2021/12/18 00:35:33;;;;;;;44.00;19.60;;;6.30;95.00;;;;;;5026850;28;20028;-70
2021/12/18 00:38:00;;;;;;;42.35;19.20;;;6.30;95.10;;;;;;5028827;28;20045;-70
2021/12/18 00:40:30;;;;;;;38.63;18.33;;;6.30;95.20;;;;;;5030370;28;20048;-70
2021/12/18 00:45:22;;;;;;;38.67;18.30;;;6.30;95.40;;;;;;5032683;28;20061;-70
2021/12/18 00:47:47;;;;;;;39.92;18.33;;;6.30;95.30;;;;;;5025099;28;20118;-70
2021/12/18 00:50:19;;;;;;;39.45;18.77;;;6.30;95.40;;;;;;5028015;28;20022;-70
2021/12/18 00:52:46;;;;;;;44.50;20.15;;;6.30;95.30;;;;;;5021614;28;20037;-70
2021/12/18 00:55:12;;;;;;;44.80;19.65;;;6.30;95.30;;;;;;5028792;28;20026;-70
2021/12/18 00:57:38;;;;;;;43.72;20.55;;;6.20;95.20;;;;;;5030247;28;20029;-70
2021/12/18 01:00:07;;;;;;;42.35;20.50;;;6.20;95.10;;;;;;5026307;28;20381;-70
2021/12/18 01:02:33;;;;;;;47.05;21.00;;;6.20;95.00;;;;;;5029715;28;20477;-70
2021/12/18 01:04:59;;;;;;;44.00;19.95;;;6.10;94.90;;;;;;5025640;28;20040;-70
2021/12/18 01:07:25;;;;;;;47.50;20.42;;;6.10;95.00;;;;;;5029821;28;20025;-70
2021/12/18 01:10:02;;;;;;;49.08;21.02;;;6.00;95.40;;;;;;5031756;28;20400;-70
2021/12/18 01:12:35;;;;;;;41.67;19.60;;;6.00;95.20;;;;;;5034326;28;20022;-70
2021/12/18 01:15:15;;;;;;;40.90;19.83;;;6.00;95.10;;;;;;5031670;28;20086;-70
2021/12/18 01:23:14;;;;;;;46.38;20.10;;;5.90;95.30;;;;;;5033198;28;20043;-70
2021/12/18 01:25:40;;;;;;;43.30;19.92;;;5.90;95.40;;;;;;5039675;28;20042;-70
2021/12/18 01:28:06;;;;;;;45.30;20.60;;;5.90;95.50;;;;;;5030724;28;20094;-70
2021/12/18 01:30:32;;;;;;;46.00;20.45;;;5.90;95.40;;;;;;5028874;28;20032;-70
2021/12/18 01:32:58;;;;;;;46.90;20.83;;;5.90;95.30;;;;;;5029531;28;20038;-70
2021/12/18 01:35:24;;;;;;;43.92;19.10;;;5.90;95.40;;;;;;5026958;28;20120;-70
2021/12/18 01:37:51;;;;;;;39.83;18.27;;;5.90;95.70;;;;;;5033516;28;20034;-70
2021/12/18 01:40:18;;;;;;;46.47;19.63;;;5.90;95.70;;;;;;5027364;28;20045;-70
2021/12/18 01:45:46;;;;;;;41.47;18.52;;;5.90;95.70;;;;;;5035959;28;20031;-70
2021/12/18 01:53:56;;;;;;;41.85;18.45;;;5.80;95.70;;;;;;4922963;29;20447;-70
2021/12/18 01:56:24;;;;;;;41.60;18.23;;;5.80;95.70;;;;;;4909691;29;20422;-70
2021/12/18 01:58:55;;;;;;;45.47;20.77;;;5.80;95.70;;;;;;4905695;29;20459;-70
2021/12/18 02:01:30;;;;;;;43.03;19.55;;;5.80;95.60;;;;;;4909707;29;20032;-70
2021/12/18 02:04:02;;;;;;;39.00;17.67;;;5.80;95.70;;;;;;4907169;29;20072;-70
2021/12/18 02:06:35;;;;;;;46.83;21.15;;;5.80;95.80;;;;;;4908850;29;20519;-70
2021/12/18 02:09:08;;;;;;;45.40;19.75;;;5.80;95.70;;;;;;4911679;29;20558;-70
2021/12/18 02:11:44;;;;;;;47.05;20.40;;;5.80;95.70;;;;;;4910514;29;20048;-70
2021/12/18 02:19:30;;;;;;;45.42;20.25;;;5.70;95.70;;;;;;4910549;29;20051;-70
2021/12/18 02:20:24;;;;;;;50.55;20.33;;;5.70;95.80;;;;;;4911258;29;20070;-70
2021/12/18 02:22:57;;;;;;;36.55;17.42;;;5.70;95.90;;;;;;4910670;29;20036;-70
2021/12/18 02:25:31;;;;;;;43.17;19.23;;;5.60;95.90;;;;;;4908476;29;20444;-70
2021/12/18 02:28:02;;;;;;;42.63;19.83;;;5.70;95.90;;;;;;4924112;28;20052;-70
2021/12/18 02:30:35;;;;;;;39.92;18.80;;;5.60;95.80;;;;;;4977449;28;20506;-70
2021/12/18 02:33:07;;;;;;;40.65;18.55;;;5.60;95.90;;;;;;5030015;28;20497;-70
2021/12/18 02:35:39;;;;;;;40.67;19.30;;;5.70;96.00;;;;;;5024885;28;20040;-70
2021/12/18 02:38:11;;;;;;;37.25;17.75;;;5.60;95.90;;;;;;5027082;28;20021;-70
2021/12/18 02:43:28;;;;;;;45.75;20.42;;;5.60;95.90;;;;;;5029130;28;20117;-70
2021/12/18 02:45:59;;;;;;;45.70;20.80;;;5.60;95.90;;;;;;5012104;28;20052;-70
2021/12/18 02:48:29;;;;;;;45.53;19.48;;;5.60;96.00;;;;;;5025914;28;20060;-70
2021/12/18 02:50:59;;;;;;;41.33;20.10;;;5.60;95.90;;;;;;5030015;28;20048;-70
2021/12/18 02:53:26;;;;;;;42.20;19.92;;;5.60;95.80;;;;;;5027484;28;20440;-70
2021/12/18 02:56:01;;;;;;;38.90;19.38;;;5.60;95.90;;;;;;5026366;28;20032;-70
2021/12/18 02:58:27;;;;;;;40.63;19.48;;;5.60;95.90;;;;;;5029466;28;20370;-70
2021/12/18 03:00:55;;;;;;;42.58;19.50;;;5.50;95.90;;;;;;5028228;28;20056;-70
2021/12/18 03:03:25;;;;;;;40.90;19.17;;;5.50;96.00;;;;;;5034487;28;20033;-70
2021/12/18 03:06:16;;;;;;;42.38;19.23;;;5.50;96.00;;;;;;5026915;28;20036;-70
2021/12/18 03:09:49;;;;;;;48.22;19.83;;;5.50;95.90;;;;;;5030198;28;20741;-70
2021/12/18 03:22:56;;;;;;;41.65;18.98;;;5.40;96.10;;;;;;5026384;28;20026;-70
2021/12/18 03:25:23;;;;;;;43.78;18.70;;;5.40;96.10;;;;;;5013136;28;20076;-70
2021/12/18 03:27:54;;;;;;;42.47;20.05;;;5.40;96.10;;;;;;5030168;28;20025;-70
2021/12/18 03:30:20;;;;;;;;;;;5.40;96.00;;;;;;5039465;28;20025;-70
2021/12/18 03:32:47;;;;;;;30.80;15.45;;;5.40;96.00;;;;;;5027078;28;20289;-70
2021/12/18 03:35:14;;;;;;;40.78;18.73;;;5.40;96.00;;;;;;5024880;28;20026;-70
2021/12/18 03:37:41;;;;;;;29.20;14.40;;;5.40;96.10;;;;;;5026343;28;20029;-70
2021/12/18 03:40:10;;;;;;;35.25;16.77;;;5.40;96.10;;;;;;5026500;28;20550;-70
2021/12/18 03:42:36;;;;;;;36.45;17.52;;;5.40;96.10;;;;;;5028694;28;20049;-70
2021/12/18 03:45:05;;;;;;;43.03;19.10;;;5.40;95.90;;;;;;5027816;28;20148;-70
2021/12/18 03:47:30;;;;;;;41.03;19.65;;;5.40;95.80;;;;;;5025846;28;20047;-70
2021/12/18 03:49:56;;;;;;;41.40;19.80;;;5.40;95.80;;;;;;5025979;28;20025;-70
2021/12/18 03:52:22;;;;;;;42.13;18.52;;;5.40;95.80;;;;;;5026063;28;20025;-70
2021/12/18 03:54:48;;;;;;;41.88;19.45;;;5.40;95.80;;;;;;5027587;28;20073;-70
2021/12/18 03:57:14;;;;;;;42.08;19.50;;;5.30;95.70;;;;;;5029017;28;20068;-70
2021/12/18 03:59:40;;;;;;;39.55;18.27;;;5.30;95.70;;;;;;5029164;28;20083;-70
2021/12/18 04:02:06;;;;;;;34.85;17.05;;;5.30;95.80;;;;;;5029856;28;20029;-70
2021/12/18 04:04:31;;;;;;;35.30;17.60;;;5.30;95.80;;;;;;5029541;28;20120;-70
2021/12/18 04:06:58;;;;;;;40.97;19.40;;;5.30;95.80;;;;;;5029850;28;20481;-70
2021/12/18 04:09:24;;;;;;;37.03;18.23;;;5.30;95.80;;;;;;5033829;28;20037;-70
2021/12/18 04:11:51;;;;;;;39.70;19.85;;;5.30;95.70;;;;;;5034847;28;20029;-70
2021/12/18 04:14:20;;;;;;;39.85;19.45;;;5.20;95.70;;;;;;5034560;28;20043;-70
2021/12/18 04:16:45;;;;;;;41.13;19.25;;;5.20;95.70;;;;;;5030613;28;20288;-70
2021/12/18 04:19:15;;;;;;;38.53;18.48;;;5.20;95.80;;;;;;5032269;28;20090;-70
2021/12/18 04:21:41;;;;;;;39.35;19.33;;;5.20;96.00;;;;;;5043839;28;20396;-70
2021/12/18 04:24:07;;;;;;;42.35;20.98;;;5.20;95.90;;;;;;5033977;28;20025;-70
2021/12/18 04:26:34;;;;;;;37.65;18.42;;;5.10;95.80;;;;;;5039322;28;20053;-71
2021/12/18 04:29:01;;;;;;;42.28;19.08;;;5.10;95.80;;;;;;5032327;28;20091;-70
2021/12/18 04:31:28;;;;;;;39.22;18.88;;;5.10;95.80;;;;;;5033737;28;20029;-70
2021/12/18 04:33:53;;;;;;;42.30;19.70;;;5.00;95.70;;;;;;5017771;28;20025;-70
2021/12/18 04:36:20;;;;;;;38.88;18.38;;;5.00;95.60;;;;;;5034157;28;20473;-70
2021/12/18 04:38:45;;;;;;;41.67;19.67;;;4.90;95.60;;;;;;5028548;28;20480;-70
2021/12/18 04:41:14;;;;;;;44.40;19.95;;;4.90;95.70;;;;;;5032232;28;20056;-70
2021/12/18 04:43:39;;;;;;;41.75;19.15;;;4.80;95.70;;;;;;5031222;28;20087;-70
2021/12/18 04:46:05;;;;;;;43.70;19.98;;;4.80;95.70;;;;;;5030424;28;20022;-70
2021/12/18 04:48:31;;;;;;;37.63;18.65;;;4.70;95.60;;;;;;5032442;28;20096;-70
2021/12/18 04:50:57;;;;;;;36.70;18.75;;;4.70;95.50;;;;;;5034176;28;20509;-70
2021/12/18 04:53:22;;;;;;;44.08;19.20;;;4.60;95.50;;;;;;5034159;28;20025;-70
2021/12/18 04:55:48;;;;;;;43.28;19.73;;;4.60;95.50;;;;;;5037619;28;20046;-70
2021/12/18 04:58:14;;;;;;;41.22;18.83;;;4.50;95.60;;;;;;5032667;28;20026;-70
2021/12/18 05:00:46;;;;;;;42.72;19.80;;;4.50;95.60;;;;;;5031397;28;20038;-70
2021/12/18 05:03:13;;;;;;;45.03;19.75;;;4.40;95.80;;;;;;5031085;28;20116;-70
2021/12/18 05:05:39;;;;;;;44.58;19.63;;;4.40;96.50;;;;;;5026936;28;20045;-70
2021/12/18 05:08:05;;;;;;;42.30;19.95;;;4.40;96.20;;;;;;5031584;28;20021;-70
2021/12/18 05:10:32;;;;;;;45.03;19.83;;;4.40;96.10;;;;;;5030662;28;20030;-70
2021/12/18 05:12:57;;;;;;;44.55;19.63;;;4.40;96.10;;;;;;5029242;28;20458;-70
2021/12/18 05:15:24;;;;;;;46.85;20.90;;;4.30;96.00;;;;;;5048260;28;20054;-70
2021/12/18 05:17:49;;;;;;;42.90;20.40;;;4.30;95.90;;;;;;5031044;28;20033;-70
2021/12/18 05:20:15;;;;;;;45.45;19.67;;;4.30;96.10;;;;;;5027933;28;20029;-70
2021/12/18 05:22:41;;;;;;;45.30;20.75;;;4.30;96.20;;;;;;5029494;28;20025;-70
2021/12/18 05:25:08;;;;;;;46.65;20.27;;;4.30;96.30;;;;;;5029979;28;20038;-70
2021/12/18 05:27:34;;;;;;;44.13;20.00;;;4.20;96.40;;;;;;5041956;28;20156;-70
2021/12/18 05:30:00;;;;;;;45.28;19.33;;;4.20;96.40;;;;;;5030413;28;20067;-70
2021/12/18 05:32:25;;;;;;;43.45;20.63;;;4.20;96.40;;;;;;5028612;28;20030;-70
2021/12/18 05:34:51;;;;;;;45.50;20.85;;;4.20;96.30;;;;;;5033074;28;20017;-70
2021/12/18 05:37:32;;;;;;;44.33;20.38;;;4.20;96.60;;;;;;5028662;28;20029;-70
2021/12/18 05:39:58;;;;;;;40.25;18.60;;;4.20;97.00;;;;;;5027449;28;20037;-70
2021/12/18 05:42:24;;;;;;;41.70;19.98;;;4.30;97.00;;;;;;5046269;28;20114;-70
2021/12/18 05:44:50;;;;;;;43.47;20.33;;;4.30;96.90;;;;;;5038716;28;20399;-70
2021/12/18 05:47:16;;;;;;;40.85;18.85;;;4.30;96.80;;;;;;5033010;28;20116;-70
2021/12/18 05:49:42;;;;;;;40.15;18.63;;;4.30;96.80;;;;;;5034074;28;20036;-70
2021/12/18 05:52:08;;;;;;;44.22;20.58;;;4.40;96.90;;;;;;5028652;28;20022;-70
2021/12/18 05:54:36;;;;;;;45.47;21.52;;;4.30;96.80;;;;;;5037290;28;20059;-70
2021/12/18 05:57:09;;;;;;;46.53;20.85;;;4.40;96.80;;;;;;5032678;28;20033;-70
2021/12/18 05:59:35;;;;;;;40.45;19.98;;;4.40;96.80;;;;;;5029162;28;20037;-70
2021/12/18 06:02:01;;;;;;;39.55;19.40;;;4.30;96.70;;;;;;5028559;28;20029;-70
2021/12/18 06:04:27;;;;;;;39.55;19.95;;;4.30;96.60;;;;;;5028833;28;20408;-70
2021/12/18 06:07:03;;;;;;;36.50;17.10;;;4.30;96.60;;;;;;5027900;28;20048;-70
2021/12/18 06:09:30;;;;;;;38.15;18.90;;;4.20;96.40;;;;;;5029764;28;20028;-70
2021/12/18 06:11:57;;;;;;;37.72;17.52;;;4.20;96.30;;;;;;5040618;28;20036;-70
2021/12/18 06:14:22;;;;;;;36.63;18.08;;;4.10;96.20;;;;;;5031198;28;20481;-70
2021/12/18 06:16:48;;;;;;;43.60;20.48;;;4.10;96.10;;;;;;5031158;28;20032;-70
2021/12/18 06:19:14;;;;;;;47.65;20.75;;;4.00;96.10;;;;;;5031454;28;20039;-70
2021/12/18 06:21:39;;;;;;;41.50;19.58;;;4.00;96.10;;;;;;5031790;28;20038;-70
2021/12/18 06:24:05;;;;;;;39.83;18.70;;;4.00;96.20;;;;;;5028416;28;20029;-70
2021/12/18 06:26:31;;;;;;;44.58;20.13;;;3.90;96.20;;;;;;5032577;28;20036;-70
2021/12/18 06:28:57;;;;;;;40.97;19.25;;;3.90;96.20;;;;;;5019802;28;20102;-69
2021/12/18 06:31:23;;;;;;;36.28;16.52;;;3.90;96.20;;;;;;5026901;28;20459;-69
2021/12/18 06:33:48;;;;;;;33.83;16.67;;;3.80;96.20;;;;;;5027957;28;20032;-69
2021/12/18 06:36:14;;;;;;;32.85;16.42;;;3.80;96.00;;;;;;5031060;28;20378;-70
2021/12/18 06:38:40;;;;;;;33.88;15.30;;;3.80;95.90;;;;;;5028512;28;20039;-69
2021/12/18 06:41:06;;;;;;;29.98;14.98;;;3.70;95.80;;;;;;5034050;28;20076;-69
2021/12/18 06:43:31;;;;;;;33.50;16.33;;;3.70;95.70;;;;;;5029742;28;20546;-69
2021/12/18 06:45:57;;;;;;;31.45;15.25;;;3.60;95.60;;;;;;5026706;28;20113;-69
2021/12/18 06:48:23;;;;;;;27.55;14.48;;;3.60;95.50;;;;;;5042117;28;20049;-70
2021/12/18 06:50:50;;;;;;;29.92;14.50;;;3.60;95.40;;;;;;5026776;28;20029;-69
2021/12/18 06:53:18;;;;;;;30.48;15.02;;;3.50;95.30;;;;;;5026728;28;20059;-70
2021/12/18 06:55:44;;;;;;;30.27;15.00;;;3.50;95.20;;;;;;5031064;28;20496;-70
2021/12/18 06:58:10;;;;;;;30.60;15.75;;;3.50;95.10;;;;;;5028544;28;20029;-70
2021/12/18 07:00:36;;;;;;;39.20;18.65;;;3.40;95.10;;;;;;5034601;28;20030;-70
2021/12/18 07:03:01;;;;;;;32.58;16.63;;;3.40;95.10;;;;;;5033357;28;20103;-70
2021/12/18 07:05:27;;;;;;;41.00;16.85;;;3.40;95.10;;;;;;5032360;28;20124;-70
2021/12/18 07:07:53;;;;;;;48.72;19.80;;;3.30;95.60;;;;;;5031325;28;20563;-70
2021/12/18 07:10:19;;;;;;;39.97;18.02;;;3.30;95.10;;;;;;5030421;28;20416;-70
2021/12/18 07:12:45;;;;;;;38.30;18.13;;;3.30;95.10;;;;;;5036890;28;20025;-70
2021/12/18 07:15:12;;;;;;;37.20;18.02;;;3.30;95.20;;;;;;5040859;28;20549;-70
2021/12/18 07:17:38;;;;;;;32.85;16.08;;;3.30;95.20;;;;;;5027924;28;20088;-70
2021/12/18 07:20:06;;;;;;;39.53;16.98;;;3.30;95.10;;;;;;5028078;28;20025;-70
2021/12/18 07:22:32;;;;;;;55.85;15.25;;;3.20;95.00;;;;;;5032260;28;20022;-70
2021/12/18 07:24:58;;;;;;;62.92;17.52;;;3.20;95.00;;;;;;5026381;28;20546;-70
2021/12/18 07:27:24;;;;;;;30.67;15.50;;;3.20;95.00;;;;;;5028957;28;20028;-69
2021/12/18 07:29:49;;;;;;;29.98;15.30;;;3.20;94.90;;;;;;5030700;28;20487;-72
2021/12/18 07:32:15;;;;;;;29.98;15.07;;;3.10;94.80;;;;;;5032962;28;20030;-71
2021/12/18 07:34:41;;;;;;;38.88;16.13;;;3.10;94.80;;;;;;5031758;28;20101;-70
2021/12/18 07:37:07;;;;;;;31.83;16.05;;;3.10;94.80;;;;;;5034458;28;20029;-70
2021/12/18 07:39:32;;;;;;;32.33;15.80;;;3.10;94.80;;;;;;5032918;28;20400;-71
2021/12/18 07:41:58;;;;;;;32.60;14.43;;;3.10;94.80;;;;;;5038697;28;20017;-69
2021/12/18 07:44:24;;;;;;;28.58;14.02;;;3.10;94.80;;;;;;5036547;28;20120;-70
2021/12/18 07:46:50;;;;;;;29.38;14.38;;;3.00;94.70;;;;;;5035715;28;20027;-70
2021/12/18 07:49:16;;;;;;;29.95;13.50;;;3.00;94.60;;;;;;5033379;28;20483;-70
2021/12/18 07:51:41;;;;;;;26.33;13.52;;;3.00;94.60;;;;;;5040238;28;20689;-69
2021/12/18 07:54:07;;;;;;;26.42;13.85;;;3.00;94.90;;;;;;5041933;28;20522;-69
2021/12/18 07:56:34;;;;;;;27.48;14.07;;;3.00;94.40;;;;;;5033729;28;20497;-70
2021/12/18 07:59:00;;;;;;;24.17;13.07;;;2.90;94.30;;;;;;5036305;28;20032;-70
2021/12/18 08:01:26;;;;;;;24.83;12.75;;;2.90;94.20;;;;;;5032394;28;20026;-71
2021/12/18 08:03:52;;;;;;;27.65;13.50;;;2.90;94.20;;;;;;5033480;28;20030;-71
2021/12/18 08:06:21;;;;;;;26.00;13.68;;;2.90;94.50;;;;;;5035589;28;20052;-70
2021/12/18 08:08:47;;;;;;;25.75;13.75;;;2.90;94.00;;;;;;5030132;28;20028;-69
2021/12/18 08:11:14;;;;;;;37.92;18.15;;;2.90;93.90;;;;;;5034596;28;20063;-70
2021/12/18 08:13:40;;;;;;;35.75;18.20;;;3.00;93.80;;;;;;5030318;28;20117;-71
2021/12/18 08:16:05;;;;;;;39.22;15.60;;;3.00;93.70;;;;;;5029521;28;20100;-70
2021/12/18 08:18:31;;;;;;;29.70;13.95;;;3.10;93.70;;;;;;5032773;28;20029;-71
2021/12/18 08:20:57;;;;;;;28.02;13.63;;;3.30;93.60;;;;;;5031198;28;20172;-72
2021/12/18 08:23:23;;;;;;;27.90;13.43;;;3.60;93.40;;;;;;5030742;28;20037;-71
2021/12/18 08:25:50;;;;;;;26.65;13.73;;;4.10;93.00;;;;;;5031484;28;20025;-71
2021/12/18 08:28:16;;;;;;;24.05;12.57;;;4.90;92.00;;;;;;5032303;28;20040;-72
2021/12/18 08:30:42;;;;;;;20.95;11.65;;;5.60;91.00;;;;;;5031628;28;20127;-71
2021/12/18 08:33:08;;;;;;;21.95;12.07;;;6.30;89.90;;;;;;5031532;28;20079;-72
2021/12/18 08:35:35;;;;;;;21.23;11.73;;;7.00;87.70;;;;;;5031451;28;20029;-72
2021/12/18 08:38:01;;;;;;;25.00;12.25;;;7.60;85.40;;;;;;5031434;28;20128;-72
2021/12/18 08:40:28;;;;;;;26.23;14.43;;;8.20;83.20;;;;;;5031539;28;20040;-72
2021/12/18 08:42:54;;;;;;;28.20;15.95;;;8.80;80.80;;;;;;5030821;28;20029;-72
2021/12/18 08:45:20;;;;;;;22.70;14.60;;;9.40;78.60;;;;;;5031655;28;20396;-72
2021/12/18 08:47:46;;;;;;;21.25;14.00;;;10.00;76.50;;;;;;5031415;28;20452;-72
2021/12/18 08:50:17;;;;;;;19.55;12.82;;;10.60;74.30;;;;;;5031253;28;20052;-72
2021/12/18 08:52:46;;;;;;;20.65;14.35;;;11.10;71.70;;;;;;5031105;28;20405;-73
2021/12/18 08:55:12;;;;;;;20.92;14.90;;;11.40;69.70;;;;;;5030141;28;20515;-73
2021/12/18 08:57:38;;;;;;;23.52;15.98;;;11.50;68.50;;;;;;5031810;28;20025;-73
2021/12/18 09:00:09;;;;;;;20.50;13.98;;;11.90;67.80;;;;;;5032596;28;20109;-73
2021/12/18 09:02:36;;;;;;;16.58;11.02;;;12.30;66.60;;;;;;5031539;28;20448;-73
2021/12/18 09:05:01;;;;;;;14.88;10.25;;;12.80;64.90;;;;;;5062609;28;20044;-73
2021/12/18 09:07:28;;;;;;;17.25;14.75;;;13.40;62.60;;;;;;5030374;28;20380;-73
2021/12/18 09:09:54;;;;;;;22.15;17.17;;;14.00;60.20;;;;;;5031153;28;20400;-74
2021/12/18 09:12:20;;;;;;;21.20;14.10;;;14.40;58.00;;;;;;5032695;28;20022;-74
2021/12/18 09:14:46;;;;;;;23.98;15.80;;;13.20;58.70;;;;;;5030915;28;20446;-73
2021/12/18 09:17:11;;;;;;;25.63;17.23;;;12.10;61.70;;;;;;5031467;28;20029;-73
2021/12/18 09:19:37;;;;;;;20.20;14.18;;;11.20;64.10;;;;;;5030398;28;20059;-73
2021/12/18 09:22:06;;;;;;;23.17;15.60;;;10.40;66.00;;;;;;5030353;28;20492;-72
2021/12/18 09:24:33;;;;;;;29.00;15.98;;;9.80;67.90;;;;;;5031311;28;20518;-73
2021/12/18 09:26:59;;;;;;;27.20;16.45;;;9.30;69.50;;;;;;5030111;28;20031;-72
2021/12/18 09:29:25;;;;;;;31.13;18.13;;;8.90;71.20;;;;;;5034316;28;20037;-72
2021/12/18 09:31:50;;;;;;;27.85;17.05;;;8.50;72.50;;;;;;5031039;28;20033;-72
2021/12/18 09:34:17;;;;;;;28.00;17.00;;;8.20;73.80;;;;;;5030046;28;20056;-72
2021/12/18 09:36:43;;;;;;;24.98;15.57;;;8.00;75.20;;;;;;5029782;28;20484;-72
2021/12/18 09:39:09;;;;;;;25.83;15.70;;;7.70;76.30;;;;;;5032101;28;20172;-72
2021/12/18 09:41:36;;;;;;;28.85;16.20;;;7.50;77.30;;;;;;5030864;28;20492;-72
2021/12/18 09:44:02;;;;;;;29.08;18.13;;;7.40;78.20;;;;;;5030197;28;20405;-72
2021/12/18 09:46:31;;;;;;;29.67;16.40;;;7.30;79.00;;;;;;5030623;28;20385;-72
2021/12/18 09:48:57;;;;;;;27.27;15.63;;;7.20;80.90;;;;;;5014522;28;20029;-72
2021/12/18 09:51:27;;;;;;;27.55;15.30;;;7.20;83.70;;;;;;5031753;28;20057;-71
2021/12/18 09:53:57;;;;;;;28.15;16.20;;;7.30;85.00;;;;;;5031124;28;20163;-72
2021/12/18 09:56:24;;;;;;;28.00;15.82;;;7.30;85.50;;;;;;5029233;28;20037;-72
2021/12/18 09:58:51;;;;;;;27.55;14.02;;;7.40;86.30;;;;;;5029867;28;20111;-73
2021/12/18 10:01:17;;;;;;;25.55;14.30;;;7.50;86.60;;;;;;5032577;28;20033;-73
2021/12/18 10:03:57;;;;;;;24.15;14.50;;;7.60;85.90;;;;;;5033899;28;20017;-72
2021/12/18 10:06:44;;;;;;;28.33;15.38;;;7.70;85.60;;;;;;5031422;28;20033;-71
2021/12/18 10:09:30;;;;;;;26.33;14.35;;;7.90;85.00;;;;;;5029477;28;20044;-72
2021/12/18 10:12:17;;;;;;;26.08;14.45;;;8.00;85.20;;;;;;5030440;28;20124;-72
2021/12/18 10:14:46;;;;;;;25.65;14.55;;;8.00;85.20;;;;;;5029597;28;20097;-71
2021/12/18 10:17:24;;;;;;;25.02;14.43;;;8.10;84.10;;;;;;5029851;28;20091;-72
2021/12/18 10:19:52;;;;;;;27.13;14.68;;;8.20;84.20;;;;;;5031284;28;20041;-72
2021/12/18 10:22:17;;;;;;;21.98;13.25;;;8.40;84.00;;;;;;5022665;28;20112;-72
2021/12/18 10:24:45;;;;;;;23.55;13.95;;;8.50;83.80;;;;;;5035747;28;20104;-72
2021/12/18 10:27:26;;;;;;;21.35;12.98;;;8.80;82.10;;;;;;5038150;28;20056;-72
2021/12/18 10:30:06;;;;;;;22.23;13.90;;;9.20;80.30;;;;;;5027881;28;20037;-73
2021/12/18 10:32:32;;;;;;;28.98;18.55;;;10.20;77.10;;;;;;5025503;28;20037;-73
2021/12/18 10:34:59;;;;;;;26.27;20.63;;;12.60;70.60;;;;;;5028160;28;20518;-73
2021/12/18 10:37:30;;;;;;;25.08;22.30;;;15.20;61.70;;;;;;5028332;28;20386;-73
2021/12/18 10:40:12;;;;;;;22.92;17.40;;;17.50;54.40;;;;;;5029134;28;20432;-74
2021/12/18 10:42:41;;;;;;;27.05;24.23;;;17.90;51.50;;;;;;5027507;28;20022;-74
2021/12/18 10:45:14;;;;;;;24.63;22.02;;;19.80;46.20;;;;;;5030107;28;20056;-74
2021/12/18 10:48:01;;;;;;;23.58;21.15;;;21.30;43.20;;;;;;5024919;28;20037;-77
2021/12/18 10:50:39;;;;;;;25.20;22.50;;;22.60;39.40;;;;;;5030617;28;20041;-77
2021/12/18 10:53:10;;;;;;;26.58;24.08;;;23.80;36.50;;;;;;5030991;28;20161;-78
2021/12/18 10:55:39;;;;;;;23.35;21.00;;;24.60;34.10;;;;;;5029379;28;20029;-78
2021/12/18 10:58:09;;;;;;;20.48;18.40;;;25.40;32.70;;;;;;5030978;28;20041;-79
2021/12/18 11:00:34;;;;;;;20.52;18.40;;;26.10;31.30;;;;;;5030681;28;20032;-78
2021/12/18 11:03:23;;;;;;;18.45;16.55;;;26.60;30.50;;;;;;5033962;28;20034;-79
2021/12/18 11:06:24;;;;;;;18.00;16.10;;;27.00;29.70;;;;;;5035260;28;20485;-76
2021/12/18 11:09:08;;;;;;;23.75;16.08;;;27.30;28.70;;;;;;5028185;28;20060;-77
2021/12/18 11:14:14;;;;;;;17.05;15.25;;;28.20;28.00;;;;;;5026226;28;20030;-76
2021/12/18 11:16:43;;;;;;;17.25;15.50;;;28.60;27.80;;;;;;5024051;28;20511;-76
2021/12/18 11:19:16;;;;;;;18.90;16.90;;;28.90;27.10;;;;;;5026075;28;20041;-77
2021/12/18 11:21:50;;;;;;;20.02;18.20;;;28.80;25.90;;;;;;5037846;28;20091;-78
2021/12/18 11:24:16;;;;;;;18.75;15.73;;;28.80;25.50;;;;;;5029294;28;20029;-82
2021/12/18 11:27:00;;;;;;;31.67;29.20;;;29.00;25.90;;;;;;5027159;28;20488;-79
2021/12/18 11:29:34;;;;;;;22.40;20.48;;;29.30;25.30;;;;;;5028985;28;20543;-78
2021/12/18 11:32:00;;;;;;;29.58;26.95;;;29.60;25.40;;;;;;5030062;28;20071;-83
2021/12/18 11:34:26;;;;;;;34.25;31.48;;;29.70;25.00;;;;;;5031559;28;20030;-80
2021/12/18 11:36:53;;;;;;;33.60;30.83;;;29.80;24.30;;;;;;5043570;28;20101;-82
2021/12/18 11:39:22;;;;;;;24.83;22.63;;;29.90;24.50;;;;;;5040677;28;20033;-78
2021/12/18 11:41:50;;;;;;;21.10;19.10;;;30.10;24.10;;;;;;5030631;28;20596;-83
2021/12/18 11:44:52;;;;;;;31.88;29.30;;;30.30;24.20;;;;;;5029928;28;20024;-83
2021/12/18 11:47:26;;;;;;;14.65;13.07;;;30.60;23.80;;;;;;5023921;28;20033;-82
2021/12/18 11:49:56;;;;;;;15.25;13.75;;;31.00;23.90;;;;;;5034420;28;20030;-83
2021/12/18 11:52:22;;;;;;;18.20;16.40;;;31.30;23.10;;;;;;5042796;28;20026;-82
2021/12/18 11:54:57;;;;;;;14.38;12.55;;;31.20;22.60;;;;;;5035256;28;20493;-78
2021/12/18 11:57:48;;;;;;;14.45;11.65;;;31.20;22.50;;;;;;5031940;28;20855;-85
2021/12/18 12:00:21;;;;;;;13.43;11.27;;;31.50;23.10;;;;;;5032022;28;20032;-75
2021/12/18 12:02:48;;;;;;;13.98;10.75;;;31.50;22.40;;;;;;5035475;28;20485;-75
2021/12/18 12:05:17;;;;;;;13.10;10.35;;;31.40;22.20;;;;;;5030191;28;20025;-76
2021/12/18 12:07:45;;;;;;;11.50;10.27;;;31.30;22.40;;;;;;5028901;28;20033;-74
2021/12/18 12:10:47;;;;;;;13.18;10.10;;;31.40;22.30;;;;;;5037979;28;20022;-75
2021/12/18 12:13:10;;;;;;;12.25;9.70;;;31.70;22.30;;;;;;5026407;28;20032;-77
2021/12/18 12:15:51;;;;;;;10.07;8.93;;;32.00;22.00;;;;;;5029061;28;20278;-80
2021/12/18 12:18:17;;;;;;;12.35;10.13;;;32.10;21.60;;;;;;5031836;28;20017;-80
2021/12/18 12:20:48;;;;;;;11.13;9.05;;;32.00;21.70;;;;;;5030135;28;20036;-78
2021/12/18 12:23:14;;;;;;;11.45;9.52;;;31.70;21.70;;;;;;5029614;28;20024;-77
2021/12/18 12:25:49;;;;;;;11.90;9.32;;;31.60;21.90;;;;;;5031949;28;20036;-76
2021/12/18 12:28:18;;;;;;;12.00;9.00;;;30.30;22.70;;;;;;5034788;28;20413;-74
2021/12/18 12:31:03;;;;;;;15.07;9.23;;;26.80;24.60;;;;;;5029252;28;20025;-75
2021/12/18 12:33:33;;;;;;;12.23;9.50;;;24.40;26.70;;;;;;5029019;28;20276;-76
2021/12/18 12:36:10;;;;;;;14.75;9.82;;;22.80;28.90;;;;;;5034659;28;20036;-76
2021/12/18 12:38:39;;;;;;;12.43;9.25;;;21.70;30.30;;;;;;5033152;28;20425;-75
2021/12/18 12:41:33;;;;;;;14.13;9.50;;;20.90;31.80;;;;;;5035332;28;20578;-76
2021/12/18 12:44:15;;;;;;;14.38;9.93;;;20.40;34.10;;;;;;5025877;28;20034;-75
2021/12/18 12:46:42;;;;;;;12.35;8.55;;;20.10;34.60;;;;;;5027931;28;20068;-76
2021/12/18 12:49:16;;;;;;;13.23;9.23;;;20.60;32.90;;;;;;5031465;28;20029;-76
2021/12/18 12:52:05;;;;;;;13.15;8.80;;;22.90;30.20;;;;;;5033146;28;20038;-76
2021/12/18 12:54:40;;;;;;;11.95;9.20;;;25.90;27.00;;;;;;5029070;28;20041;-76
2021/12/18 12:57:27;;;;;;;11.43;8.98;;;27.20;25.80;;;;;;5031845;28;20079;-76
2021/12/18 13:00:05;;;;;;;12.80;8.93;;;28.20;24.90;;;;;;5030685;28;20511;-76
2021/12/18 13:02:54;;;;;;;12.40;9.40;;;28.70;24.70;;;;;;5028880;28;20025;-76
2021/12/18 13:05:21;;;;;;;11.15;9.50;;;29.30;24.40;;;;;;5028732;28;20037;-76
2021/12/18 13:08:05;;;;;;;12.93;10.18;;;29.70;24.00;;;;;;5029045;28;20025;-76
2021/12/18 13:10:37;;;;;;;14.27;10.80;;;30.10;23.50;;;;;;5029165;28;20033;-76
2021/12/18 13:13:09;;;;;;;10.63;8.68;;;30.30;23.30;;;;;;5014187;28;20057;-76
2021/12/18 13:16:11;;;;;;;10.73;8.60;;;30.60;23.00;;;;;;5030423;28;20033;-76
2021/12/18 13:18:56;;;;;;;12.85;8.68;;;30.80;22.40;;;;;;4986620;28;20121;-76
2021/12/18 13:21:25;;;;;;;11.15;8.45;;;30.90;22.60;;;;;;4977125;28;20058;-75
2021/12/18 13:24:11;;;;;;;11.33;9.00;;;31.10;22.30;;;;;;4989761;28;20038;-76